createdAt,value
2022-08-01T00:01:16.465Z,19.60
2022-08-01T00:03:44.622Z,19.70
2022-08-01T00:06:13.078Z,19.80
2022-08-01T00:08:46.864Z,19.90
2022-08-01T00:11:47.780Z,19.80
2022-08-01T00:14:32.464Z,19.90
2022-08-01T00:22:25.575Z,20.00
2022-08-01T00:25:02.952Z,19.90
2022-08-01T00:27:31.557Z,19.90
2022-08-01T00:30:11.180Z,19.80
2022-08-01T00:32:44.052Z,19.90
2022-08-01T00:35:20.656Z,20.00
2022-08-01T00:37:49.616Z,20.00
2022-08-01T00:40:24.241Z,20.10
2022-08-01T00:44:29.007Z,20.10
2022-08-01T00:46:57.657Z,20.10
2022-08-01T00:49:26.146Z,20.10
2022-08-01T00:51:55.972Z,20.20
2022-08-01T00:59:54.370Z,20.20
2022-08-01T01:02:25.817Z,20.20
2022-08-01T01:05:02.148Z,20.10
2022-08-01T01:07:39.193Z,20.10
2022-08-01T01:10:57.061Z,20.10
2022-08-01T01:13:50.089Z,20.00
2022-08-01T01:16:21.527Z,19.90
2022-08-01T01:18:55.008Z,19.80
2022-08-01T01:21:24.905Z,19.80
2022-08-01T01:25:10.656Z,19.80
2022-08-01T01:28:06.618Z,19.80
2022-08-01T01:30:44.131Z,19.80
2022-08-01T01:33:15.256Z,19.80
2022-08-01T01:36:15.658Z,19.80
2022-08-01T01:38:52.320Z,19.80
2022-08-01T01:41:22.195Z,19.80
2022-08-01T01:43:52.650Z,19.80
2022-08-01T01:47:25.946Z,19.80
2022-08-01T01:55:13.482Z,19.70
2022-08-01T01:57:47.266Z,19.60
2022-08-01T02:00:19.705Z,19.60
2022-08-01T02:11:14.051Z,19.50
2022-08-01T02:19:05.445Z,19.30
2022-08-01T02:22:11.522Z,19.30
2022-08-01T02:25:07.586Z,19.30
2022-08-01T02:33:33.646Z,19.40
2022-08-01T02:36:32.397Z,19.60
2022-08-01T02:38:53.932Z,19.50
2022-08-01T02:41:25.919Z,19.60
2022-08-01T02:44:04.418Z,19.60
2022-08-01T02:46:44.279Z,19.60
2022-08-01T02:49:14.932Z,19.50
2022-08-01T02:51:45.690Z,19.40
2022-08-01T02:54:19.707Z,19.50
2022-08-01T02:56:49.700Z,19.40
2022-08-01T03:00:06.188Z,19.40
2022-08-01T03:02:37.753Z,19.30
2022-08-01T03:05:09.824Z,19.40
2022-08-01T03:07:44.752Z,19.40
2022-08-01T03:10:26.116Z,19.40
2022-08-01T03:12:56.107Z,19.40
2022-08-01T03:15:27.562Z,19.50
2022-08-01T03:18:02.776Z,19.50
2022-08-01T03:20:33.780Z,19.50
2022-08-01T03:47:07.774Z,19.50
2022-08-01T03:54:14.153Z,19.50
2022-08-01T03:56:44.075Z,19.50
2022-08-01T03:59:13.776Z,19.50
2022-08-01T04:01:42.314Z,19.50
2022-08-01T04:04:11.178Z,19.50
2022-08-01T04:06:41.336Z,19.50
2022-08-01T04:09:13.302Z,19.50
2022-08-01T04:11:42.340Z,19.60
2022-08-01T04:14:10.664Z,19.60
2022-08-01T04:16:44.554Z,19.70
2022-08-01T04:19:13.862Z,19.70
2022-08-01T04:22:16.306Z,19.70
2022-08-01T04:24:56.443Z,19.80
2022-08-01T04:27:50.674Z,19.70
2022-08-01T04:36:03.377Z,19.70
2022-08-01T04:38:31.871Z,19.80
2022-08-01T04:41:11.443Z,19.80
2022-08-01T04:43:42.978Z,19.70
2022-08-01T04:46:14.755Z,19.80
2022-08-01T04:48:44.211Z,19.70
2022-08-01T04:51:23.058Z,19.80
2022-08-01T04:54:02.476Z,19.80
2022-08-01T04:56:32.309Z,19.80
2022-08-01T05:05:00.239Z,19.80
2022-08-01T05:07:32.274Z,19.70
2022-08-01T05:10:22.151Z,19.80
2022-08-01T05:12:52.108Z,19.80
2022-08-01T05:20:36.562Z,20.00
2022-08-01T05:23:24.899Z,20.20
2022-08-01T05:32:01.411Z,20.30
2022-08-01T05:34:34.324Z,20.50
2022-08-01T05:38:15.042Z,20.60
2022-08-01T05:41:15.681Z,20.80
2022-08-01T05:43:47.347Z,20.80
2022-08-01T05:46:17.320Z,20.70
2022-08-01T05:48:46.925Z,20.60
2022-08-01T05:51:48.579Z,20.60
2022-08-01T05:54:17.638Z,20.40
2022-08-01T05:56:45.698Z,20.30
2022-08-01T05:59:52.927Z,20.20
2022-08-01T06:02:29.336Z,20.20
2022-08-01T06:05:30.355Z,20.10
2022-08-01T06:07:59.990Z,20.10
2022-08-01T06:10:29.844Z,20.00
2022-08-01T06:12:58.244Z,20.10
2022-08-01T06:16:00.191Z,20.20
2022-08-01T06:18:29.754Z,20.30
2022-08-01T06:20:58.332Z,20.20
2022-08-01T06:23:32.638Z,20.10
2022-08-01T06:26:42.446Z,20.00
2022-08-01T06:29:10.803Z,19.90
2022-08-01T06:31:41.385Z,19.90
2022-08-01T06:34:50.861Z,19.90
2022-08-01T06:37:24.742Z,19.90
2022-08-01T06:40:16.268Z,19.90
2022-08-01T06:42:47.756Z,19.90
2022-08-01T06:45:23.956Z,19.90
2022-08-01T06:47:57.911Z,20.00
2022-08-01T06:50:26.906Z,20.00
2022-08-01T06:52:55.404Z,20.20
2022-08-01T06:55:24.386Z,20.30
2022-08-01T06:57:53.816Z,20.50
2022-08-01T07:00:28.356Z,20.70
2022-08-01T07:03:06.851Z,20.90
2022-08-01T07:05:45.111Z,21.10
2022-08-01T07:08:14.838Z,21.10
2022-08-01T07:10:46.568Z,21.20
2022-08-01T07:13:43.819Z,21.30
2022-08-01T07:16:21.084Z,21.20
2022-08-01T07:19:00.979Z,21.20
2022-08-01T07:21:40.790Z,21.10
2022-08-01T07:24:13.175Z,21.00
2022-08-01T07:26:53.534Z,20.90
2022-08-01T07:29:26.443Z,20.90
2022-08-01T07:31:59.084Z,21.00
2022-08-01T07:34:28.930Z,21.00
2022-08-01T07:36:58.719Z,21.10
2022-08-01T07:39:29.399Z,21.10
2022-08-01T07:42:07.443Z,21.20
2022-08-01T07:44:38.326Z,21.20
2022-08-01T07:47:07.574Z,21.10
2022-08-01T07:49:41.221Z,21.00
2022-08-01T07:52:10.987Z,21.10
2022-08-01T07:55:21.508Z,21.10
2022-08-01T07:57:50.824Z,21.40
2022-08-01T08:00:25.939Z,21.60
2022-08-01T08:02:55.038Z,21.70
2022-08-01T08:05:58.008Z,21.80
2022-08-01T08:08:20.690Z,21.80
2022-08-01T08:10:56.738Z,21.80
2022-08-01T08:13:29.514Z,21.60
2022-08-01T08:16:04.404Z,21.60
2022-08-01T08:18:34.517Z,21.50
2022-08-01T08:21:06.675Z,21.40
2022-08-01T08:24:00.523Z,21.40
2022-08-01T08:26:33.612Z,21.40
2022-08-01T08:33:59.841Z,21.60
2022-08-01T08:36:39.847Z,21.50
2022-08-01T08:39:19.850Z,21.40
2022-08-01T08:41:51.940Z,21.40
2022-08-01T08:44:23.934Z,21.40
2022-08-01T08:46:53.674Z,21.30
2022-08-01T08:49:35.485Z,21.40
2022-08-01T08:52:09.246Z,21.50
2022-08-01T08:54:45.089Z,21.70
2022-08-01T08:57:19.969Z,22.00
2022-08-01T08:59:49.731Z,22.40
2022-08-01T09:02:18.663Z,22.80
2022-08-01T09:04:51.810Z,22.90
2022-08-01T09:07:21.985Z,23.00
2022-08-01T09:09:51.736Z,23.10
2022-08-01T09:12:24.321Z,23.30
2022-08-01T09:14:55.382Z,23.40
2022-08-01T09:17:25.160Z,23.60
2022-08-01T09:19:59.401Z,24.00
2022-08-01T09:22:40.078Z,24.30
2022-08-01T09:25:12.489Z,25.00
2022-08-01T09:27:44.551Z,25.20
2022-08-01T09:30:17.131Z,25.90
2022-08-01T09:33:22.280Z,25.70
2022-08-01T09:35:57.587Z,25.00
2022-08-01T09:38:33.279Z,24.60
2022-08-01T09:41:10.893Z,24.30
2022-08-01T09:43:51.968Z,24.00
2022-08-01T09:46:26.642Z,23.50
2022-08-01T09:49:02.867Z,23.40
2022-08-01T09:51:58.851Z,23.20
2022-08-01T09:54:34.513Z,22.80
2022-08-01T09:57:19.031Z,22.70
2022-08-01T09:59:59.894Z,22.70
2022-08-01T10:02:40.423Z,22.70
2022-08-01T10:05:20.993Z,22.80
2022-08-01T10:08:08.018Z,22.50
2022-08-01T10:10:37.993Z,22.70
2022-08-01T10:13:09.774Z,22.80
2022-08-01T10:15:41.860Z,22.90
2022-08-01T10:18:16.393Z,23.00
2022-08-01T10:20:56.580Z,23.00
2022-08-01T10:28:21.403Z,22.80
2022-08-01T10:30:53.399Z,22.70
2022-08-01T10:33:51.334Z,22.60
2022-08-01T10:36:14.874Z,22.50
2022-08-01T10:38:52.626Z,22.70
2022-08-01T10:41:22.350Z,22.80
2022-08-01T10:44:26.413Z,23.10
2022-08-01T10:47:26.262Z,23.50
2022-08-01T10:50:25.987Z,23.60
2022-08-01T10:53:23.045Z,23.50
2022-08-01T10:56:07.461Z,23.50
2022-08-01T10:58:42.186Z,23.80
2022-08-01T11:01:17.333Z,23.60
2022-08-01T11:04:16.856Z,23.70
2022-08-01T11:07:06.034Z,23.70
2022-08-01T11:09:51.079Z,23.60
2022-08-01T11:12:23.485Z,23.70
2022-08-01T11:15:02.489Z,23.70
2022-08-01T11:17:48.584Z,23.70
2022-08-01T11:20:31.782Z,23.70
2022-08-01T11:23:28.707Z,23.60
2022-08-01T11:26:10.185Z,23.50
2022-08-01T11:28:44.496Z,23.50
2022-08-01T11:31:29.759Z,23.80
2022-08-01T11:34:03.017Z,24.30
2022-08-01T11:36:57.596Z,24.40
2022-08-01T11:39:21.650Z,24.60
2022-08-01T11:41:50.997Z,24.60
2022-08-01T11:44:21.156Z,24.80
2022-08-01T11:47:43.587Z,24.90
2022-08-01T11:50:30.357Z,24.80
2022-08-01T11:53:05.020Z,26.00
2022-08-01T11:55:38.277Z,26.30
2022-08-01T11:58:22.289Z,26.10
2022-08-01T12:00:57.132Z,25.70
2022-08-01T12:03:37.326Z,25.00
2022-08-01T12:06:05.894Z,24.30
2022-08-01T12:08:35.943Z,23.90
2022-08-01T12:11:07.184Z,23.70
2022-08-01T12:13:46.328Z,23.40
2022-08-01T12:16:15.518Z,23.30
2022-08-01T12:18:48.551Z,23.10
2022-08-01T12:21:16.778Z,23.10
2022-08-01T12:24:22.914Z,23.00
2022-08-01T12:26:51.044Z,23.00
2022-08-01T12:29:45.078Z,23.10
2022-08-01T12:32:28.960Z,23.30
2022-08-01T12:35:23.555Z,23.60
2022-08-01T12:38:02.140Z,24.40
2022-08-01T12:40:45.480Z,25.50
2022-08-01T12:43:27.352Z,26.50
2022-08-01T12:46:00.226Z,26.10
2022-08-01T12:48:33.182Z,25.80
2022-08-01T12:51:04.345Z,25.50
2022-08-01T12:53:40.713Z,25.20
2022-08-01T12:56:12.180Z,25.10
2022-08-01T12:58:41.388Z,24.90
2022-08-01T13:01:14.513Z,24.90
2022-08-01T13:04:02.169Z,25.00
2022-08-01T13:06:36.682Z,25.30
2022-08-01T13:09:10.302Z,25.50
2022-08-01T13:12:11.691Z,25.50
2022-08-01T13:14:41.692Z,25.60
2022-08-01T13:17:10.678Z,25.40
2022-08-01T13:20:35.373Z,25.40
2022-08-01T13:24:02.885Z,25.20
2022-08-01T13:26:15.338Z,25.00
2022-08-01T13:29:06.520Z,25.40
2022-08-01T13:32:28.817Z,25.50
2022-08-01T13:35:13.897Z,25.40
2022-08-01T13:37:50.831Z,25.50
2022-08-01T13:40:27.765Z,25.90
2022-08-01T13:42:57.793Z,26.20
2022-08-01T13:45:59.194Z,26.30
2022-08-01T13:48:30.911Z,26.60
2022-08-01T13:51:21.083Z,26.70
2022-08-01T13:53:50.914Z,26.70
2022-08-01T13:56:21.093Z,26.50
2022-08-01T13:58:49.627Z,26.40
2022-08-01T14:01:18.511Z,26.70
2022-08-01T14:03:54.640Z,27.00
2022-08-01T14:06:23.745Z,27.10
2022-08-01T14:08:52.453Z,27.10
2022-08-01T14:11:21.971Z,26.90
2022-08-01T14:13:50.824Z,26.80
2022-08-01T14:16:19.676Z,26.80
2022-08-01T14:18:57.253Z,26.50
2022-08-01T14:21:30.018Z,26.30
2022-08-01T14:23:59.089Z,26.10
2022-08-01T14:26:27.541Z,26.20
2022-08-01T14:29:04.740Z,26.60
2022-08-01T14:31:34.492Z,27.00
2022-08-01T14:34:03.254Z,26.90
2022-08-01T14:36:38.092Z,26.80
2022-08-01T14:39:08.442Z,27.10
2022-08-01T14:41:43.579Z,27.10
2022-08-01T14:44:50.969Z,26.90
2022-08-01T14:47:21.732Z,26.50
2022-08-01T14:49:54.626Z,26.30
2022-08-01T14:52:30.108Z,26.40
2022-08-01T14:55:04.688Z,26.70
2022-08-01T14:57:33.556Z,26.80
2022-08-01T15:00:04.458Z,26.90
2022-08-01T15:02:34.401Z,26.80
2022-08-01T15:05:03.253Z,26.70
2022-08-01T15:07:41.892Z,26.50
2022-08-01T15:10:21.252Z,26.50
2022-08-01T15:12:50.842Z,26.50
2022-08-01T15:15:23.611Z,26.30
2022-08-01T15:17:55.543Z,26.20
2022-08-01T15:20:24.581Z,26.30
2022-08-01T15:22:53.860Z,26.20
2022-08-01T15:25:22.824Z,26.00
2022-08-01T15:27:51.332Z,26.00
2022-08-01T15:30:26.779Z,26.00
2022-08-01T15:32:56.000Z,26.10
2022-08-01T15:35:24.492Z,25.90
2022-08-01T15:37:53.273Z,25.60
2022-08-01T15:40:22.106Z,25.40
2022-08-01T15:42:51.071Z,25.30
2022-08-01T15:45:46.352Z,25.20
2022-08-01T15:48:20.708Z,25.10
2022-08-01T15:50:52.921Z,24.90
2022-08-01T15:53:21.707Z,24.80
2022-08-01T15:55:52.463Z,24.70
2022-08-01T15:58:28.332Z,24.70
2022-08-01T16:00:56.734Z,24.70
2022-08-01T16:03:24.965Z,24.70
2022-08-01T16:05:54.185Z,24.80
2022-08-01T16:08:23.040Z,24.80
2022-08-01T16:10:51.631Z,24.70
2022-08-01T16:13:27.885Z,24.50
2022-08-01T16:15:56.929Z,24.50
2022-08-01T16:18:34.650Z,24.50
2022-08-01T16:21:03.608Z,24.50
2022-08-01T16:23:33.101Z,24.40
2022-08-01T16:26:02.145Z,24.40
2022-08-01T16:28:30.123Z,24.40
2022-08-01T16:31:17.177Z,24.40
2022-08-01T16:33:55.039Z,24.30
2022-08-01T16:36:24.902Z,24.10
2022-08-01T16:38:53.805Z,24.00
2022-08-01T16:41:22.141Z,24.10
2022-08-01T16:43:53.666Z,24.00
2022-08-01T16:46:28.208Z,24.00
2022-08-01T16:48:56.739Z,24.00
2022-08-01T16:51:28.564Z,24.00
2022-08-01T16:54:25.512Z,24.00
2022-08-01T16:57:07.969Z,23.80
2022-08-01T16:59:41.095Z,23.70
2022-08-01T17:02:11.754Z,23.80
2022-08-01T17:04:40.041Z,23.80
2022-08-01T17:07:08.145Z,23.80
2022-08-01T17:09:42.783Z,23.80
2022-08-01T17:12:14.071Z,23.80
2022-08-01T17:14:51.717Z,23.80
2022-08-01T17:17:21.571Z,23.90
2022-08-01T17:19:53.267Z,23.90
2022-08-01T17:22:54.240Z,23.90
2022-08-01T17:25:24.551Z,24.00
2022-08-01T17:27:54.977Z,24.10
2022-08-01T17:30:30.095Z,24.00
2022-08-01T17:33:10.093Z,23.80
2022-08-01T17:35:38.330Z,23.80
2022-08-01T17:38:06.540Z,23.80
2022-08-01T17:40:40.389Z,23.60
2022-08-01T17:43:09.100Z,23.50
2022-08-01T17:45:50.730Z,23.50
2022-08-01T17:48:23.479Z,23.50
2022-08-01T17:50:52.941Z,23.40
2022-08-01T17:53:23.649Z,23.40
2022-08-01T17:55:56.641Z,23.30
2022-08-01T17:59:03.633Z,23.20
2022-08-01T18:01:37.125Z,23.10
2022-08-01T18:04:12.466Z,23.00
2022-08-01T18:06:58.415Z,22.90
2022-08-01T18:09:32.731Z,22.80
2022-08-01T18:12:03.163Z,22.80
2022-08-01T18:14:40.122Z,22.70
2022-08-01T18:17:11.154Z,22.70
2022-08-01T18:23:21.543Z,22.50
2022-08-01T18:26:01.644Z,22.40
2022-08-01T18:28:41.596Z,22.30
2022-08-01T18:31:24.614Z,22.30
2022-08-01T18:34:01.101Z,22.20
2022-08-01T18:36:33.441Z,22.10
2022-08-01T18:39:10.410Z,22.00
2022-08-01T18:41:40.177Z,21.90
2022-08-01T18:44:09.321Z,21.80
2022-08-01T18:46:44.702Z,21.80
2022-08-01T18:49:13.045Z,21.70
2022-08-01T18:51:44.555Z,21.70
2022-08-01T18:54:16.385Z,21.60
2022-08-01T18:56:45.454Z,21.50
2022-08-01T18:59:14.368Z,21.50
2022-08-01T19:01:42.888Z,21.40
2022-08-01T19:04:15.569Z,21.40
2022-08-01T19:06:43.745Z,21.40
2022-08-01T19:09:23.784Z,21.30
2022-08-01T19:12:57.167Z,21.20
2022-08-01T19:15:30.035Z,21.20
2022-08-01T19:17:59.141Z,21.00
2022-08-01T19:20:28.874Z,21.00
2022-08-01T19:23:20.351Z,20.90
2022-08-01T19:25:55.398Z,20.90
2022-08-01T19:28:31.038Z,20.80
2022-08-01T19:31:00.662Z,20.80
2022-08-01T19:33:31.637Z,20.80
2022-08-01T19:36:01.075Z,20.80
2022-08-01T19:38:29.566Z,20.80
2022-08-01T19:41:01.479Z,20.80
2022-08-01T19:43:42.456Z,20.80
2022-08-01T19:46:21.039Z,20.80
2022-08-01T19:48:54.154Z,20.80
2022-08-01T19:51:32.880Z,20.80
2022-08-01T19:54:06.387Z,20.80
2022-08-01T19:56:44.960Z,20.70
2022-08-01T19:59:21.530Z,20.70
2022-08-01T20:01:52.488Z,20.70
2022-08-01T20:04:21.979Z,20.70
2022-08-01T20:06:50.763Z,20.70
2022-08-01T20:09:19.562Z,20.70
2022-08-01T20:11:53.695Z,20.70
2022-08-01T20:14:24.349Z,20.70
2022-08-01T20:16:54.453Z,20.70
2022-08-01T20:19:25.182Z,20.60
2022-08-01T20:22:18.470Z,20.50
2022-08-01T20:24:54.354Z,20.50
2022-08-01T20:27:26.805Z,20.50
2022-08-01T20:30:01.596Z,20.60
2022-08-01T20:32:40.499Z,20.50
2022-08-01T20:35:09.577Z,20.50
2022-08-01T20:38:06.481Z,20.50
2022-08-01T20:40:36.627Z,20.50
2022-08-01T20:43:05.652Z,20.40
2022-08-01T20:45:35.092Z,20.30
2022-08-01T20:48:04.081Z,20.20
2022-08-01T20:51:04.671Z,20.10
2022-08-01T20:53:36.904Z,20.10
2022-08-01T20:56:28.123Z,20.00
2022-08-01T20:59:56.162Z,20.00
2022-08-01T21:02:36.849Z,19.80
2022-08-01T21:05:06.514Z,19.60
2022-08-01T21:08:16.568Z,19.50
2022-08-01T21:10:48.506Z,19.50
2022-08-01T21:13:38.606Z,19.30
2022-08-01T21:16:24.391Z,19.40
2022-08-01T21:23:32.913Z,19.40
2022-08-01T21:26:04.968Z,19.40
2022-08-01T21:28:35.806Z,19.30
2022-08-01T21:31:10.344Z,19.20
2022-08-01T21:34:03.034Z,19.20
2022-08-01T21:36:33.494Z,19.20
2022-08-01T21:43:32.721Z,18.90
2022-08-01T21:46:02.167Z,18.90
2022-08-01T21:48:33.091Z,18.90
2022-08-01T21:51:19.455Z,18.90
2022-08-01T21:54:26.784Z,18.70
2022-08-01T21:57:28.744Z,18.60
2022-08-01T22:01:13.336Z,18.40
2022-08-01T22:03:53.122Z,18.40
2022-08-01T22:06:23.973Z,18.50
2022-08-01T22:08:54.407Z,18.60
2022-08-01T22:11:28.189Z,18.60
2022-08-01T22:14:06.656Z,18.60
2022-08-01T22:16:41.025Z,18.60
2022-08-01T22:20:16.477Z,18.70
2022-08-01T22:22:52.164Z,18.70
2022-08-01T22:25:22.015Z,18.60
2022-08-01T22:28:03.051Z,18.70
2022-08-01T22:30:42.273Z,18.70
2022-08-01T22:38:38.729Z,18.40
2022-08-01T22:54:12.206Z,17.80
2022-08-01T22:56:46.883Z,17.90
2022-08-01T22:59:20.601Z,17.80
2022-08-01T23:01:50.991Z,17.70
2022-08-01T23:04:47.002Z,17.60
2022-08-01T23:17:31.281Z,17.30
2022-08-01T23:20:07.186Z,17.10
2022-08-01T23:22:37.493Z,17.10
2022-08-01T23:25:34.456Z,17.10
2022-08-01T23:33:26.218Z,17.10
2022-08-01T23:35:55.229Z,17.00
2022-08-01T23:38:24.221Z,16.70
2022-08-01T23:40:53.026Z,16.60
2022-08-01T23:43:21.304Z,16.40
2022-08-01T23:53:57.447Z,16.30
